Time;durP1;ratioP1;P1;durP2;ratioP2;P2;SDS_P1;SDS_P2;PMS_P1;PMS_P2;Temp;Humidity;BMP_temperature;BMP_pressure;BME280_temperature;BME280_humidity;BME280_pressure;Samples;Min_cycle;Max_cycle;Signal;HPM_P1;HPM_P2
2021/08/27 00:02:11;;;;;;;;;19.80;19.80;;;;;25.45;69.40;100625.75;6216894;23;8897;-83
2021/08/27 00:05:07;;;;;;;;;23.80;22.80;;;;;25.39;69.83;100632.41;6235223;23;8822;-81
2021/08/27 00:08:03;;;;;;;;;27.75;26.00;;;;;25.12;70.43;100636.09;6236783;23;8807;-82
2021/08/27 00:10:31;;;;;;;;;22.80;22.80;;;;;24.77;71.47;100639.56;6226954;23;8815;-81
2021/08/27 00:13:27;;;;;;;;;21.20;21.20;;;;;25.05;70.76;100633.41;6234714;23;8864;-81
2021/08/27 00:15:54;;;;;;;;;26.75;26.75;;;;;25.14;70.24;100632.84;6216545;23;8792;-82
2021/08/27 00:18:50;;;;;;;;;22.00;22.00;;;;;24.70;71.79;100642.50;6219379;23;8815;-82
2021/08/27 00:21:45;;;;;;;;;27.00;26.00;;;;;24.86;70.55;100651.09;6215950;23;8854;-81
2021/08/27 00:24:13;;;;;;;;;24.00;24.00;;;;;24.74;71.29;100648.88;6225531;23;8771;-81
2021/08/27 00:26:46;;;;;;;;;22.50;22.50;;;;;24.71;71.29;100650.53;6216885;23;8869;-85
2021/08/27 00:29:41;;;;;;;;;22.75;22.75;;;;;24.66;71.14;100643.34;6214439;23;8889;-82
2021/08/27 00:32:37;;;;;;;;;26.25;26.25;;;;;24.84;70.80;100662.81;6216616;23;8829;-80
2021/08/27 00:35:33;;;;;;;;;25.00;23.50;;;;;24.98;70.26;100661.78;6215222;23;8897;-83
2021/08/27 00:38:14;;;;;;;;;21.50;21.50;;;;;25.04;70.26;100664.97;6225235;23;8811;-81
2021/08/27 00:40:55;;;;;;;;;23.25;23.25;;;;;24.57;70.52;100679.03;6215339;23;8811;-82
2021/08/27 00:43:51;;;;;;;;;29.00;29.00;;;;;24.65;70.68;100670.00;6259341;22;8820;-82
2021/08/27 00:46:46;;;;;;;;;24.25;24.25;;;;;24.78;70.75;100677.91;6256548;22;8783;-80
2021/08/27 00:49:42;;;;;;;;;23.25;23.25;;;;;24.87;70.43;100684.63;6254993;22;8779;-80
2021/08/27 00:52:39;;;;;;;;;23.25;23.25;;;;;24.95;70.59;100679.63;6275446;22;8795;-82
2021/08/27 00:55:35;;;;;;;;;21.75;21.75;;;;;24.89;70.62;100656.69;6275562;22;8763;-79
2021/08/27 00:58:31;;;;;;;;;25.75;25.75;;;;;24.87;71.25;100641.38;6275439;22;8787;-82
2021/08/27 01:01:27;;;;;;;;;22.75;22.75;;;;;24.93;71.59;100637.63;6274098;22;8876;-82
2021/08/27 01:04:23;;;;;;;;;26.00;26.00;;;;;25.12;70.00;100638.94;6274992;22;9642;-80
2021/08/27 01:07:27;;;;;;;;;23.25;23.25;;;;;25.16;70.07;100658.69;6275051;22;8831;-82
2021/08/27 01:10:21;;;;;;;;;21.00;21.00;;;;;25.13;69.79;100666.00;6254875;22;8783;-81
2021/08/27 01:13:39;;;;;;;;;25.60;25.60;;;;;25.19;69.83;100678.44;6277817;22;8775;-80
2021/08/27 01:16:44;;;;;;;;;26.50;26.50;;;;;24.49;73.06;100684.00;6255326;22;8795;-82
2021/08/27 01:19:46;;;;;;;;;26.00;26.00;;;;;24.53;72.91;100684.72;6277831;22;8787;-83
2021/08/27 01:22:51;;;;;;;;;24.75;24.75;;;;;24.64;72.00;100685.38;6275414;22;8821;-83
2021/08/27 01:25:51;;;;;;;;;25.50;25.50;;;;;24.78;71.45;100687.19;6255845;22;8794;-81
2021/08/27 01:28:50;;;;;;;;;24.75;24.75;;;;;25.02;70.91;100687.22;6277854;22;8818;-81
2021/08/27 01:31:54;;;;;;;;;21.25;21.25;;;;;25.13;70.35;100687.84;6276784;22;8779;-82
2021/08/27 01:34:52;;;;;;;;;25.00;25.00;;;;;25.22;70.02;100705.06;6278733;22;8827;-81
2021/08/27 01:37:51;;;;;;;;;22.20;22.20;;;;;25.15;70.40;100705.19;6276504;22;8868;-81
2021/08/27 01:40:50;;;;;;;;;24.50;24.50;;;;;25.10;70.10;100700.84;6257184;22;8892;-81
2021/08/27 01:43:32;;;;;;;;;25.00;25.00;;;;;24.91;70.89;100695.84;6279579;22;8791;-81
2021/08/27 01:46:01;;;;;;;;;22.75;22.75;;;;;24.40;71.59;100695.84;6250647;22;8819;-83
2021/08/27 01:48:57;;;;;;;;;27.25;26.00;;;;;24.14;73.30;100711.47;6275837;22;8863;-82
2021/08/27 01:51:26;;;;;;;;;21.50;21.50;;;;;23.73;74.68;100703.13;6285145;22;8783;-81
2021/08/27 01:54:22;;;;;;;;;28.00;28.00;;;;;23.77;75.34;100700.25;6275668;22;8806;-81
2021/08/27 01:57:18;;;;;;;;;26.00;26.00;;;;;24.22;73.20;100706.53;6256043;22;8797;-83
2021/08/27 02:00:14;;;;;;;;;24.00;24.00;;;;;24.13;74.13;100692.13;6275284;22;8882;-79
2021/08/27 02:03:10;;;;;;;;;28.50;28.50;;;;;24.48;72.91;100695.75;6254363;22;8819;-81
2021/08/27 02:06:09;;;;;;;;;29.25;29.00;;;;;24.82;71.28;100707.72;6276991;22;8787;-79
2021/08/27 02:09:06;;;;;;;;;29.00;29.00;;;;;24.71;71.31;100698.63;6275678;22;8782;-81
2021/08/27 02:11:52;;;;;;;;;26.00;25.50;;;;;24.80;70.50;100698.88;6276796;22;8799;-81
2021/08/27 02:14:21;;;;;;;;;28.75;28.75;;;;;24.70;70.34;100699.84;6286735;22;8759;-82
2021/08/27 02:17:17;;;;;;;;;28.00;28.00;;;;;24.57;70.88;100698.81;6274066;22;8779;-81
2021/08/27 02:19:59;;;;;;;;;24.00;24.00;;;;;24.76;71.16;100697.31;6277204;22;8790;-80
2021/08/27 02:22:32;;;;;;;;;26.75;26.50;;;;;24.74;70.58;100697.75;6284654;22;8786;-81
2021/08/27 02:25:31;;;;;;;;;27.50;26.75;;;;;24.98;70.18;100701.41;6278434;22;8825;-82
2021/08/27 02:28:28;;;;;;;;;26.00;26.00;;;;;24.96;69.71;100712.34;6255124;22;8779;-81
2021/08/27 02:31:27;;;;;;;;;24.75;24.75;;;;;25.00;69.82;100707.44;6275177;22;8846;-79
2021/08/27 02:34:23;;;;;;;;;25.50;25.00;;;;;25.10;68.99;100705.69;6274349;22;8783;-80
2021/08/27 02:37:21;;;;;;;;;27.00;27.00;;;;;24.66;70.56;100707.56;6275894;22;8871;-81
2021/08/27 02:40:04;;;;;;;;;19.75;19.75;;;;;24.90;69.11;100717.69;6275118;22;8807;-78
2021/08/27 02:43:00;;;;;;;;;28.50;28.00;;;;;24.86;70.22;100714.13;6275809;22;8833;-81
2021/08/27 02:45:56;;;;;;;;;29.00;29.00;;;;;25.09;68.90;100727.53;6274548;22;8783;-80
2021/08/27 02:48:51;;;;;;;;;28.25;28.25;;;;;25.20;68.49;100728.13;6279354;22;8787;-80
2021/08/27 02:51:58;;;;;;;;;23.25;23.00;;;;;25.30;67.92;100729.16;6256182;22;8783;-81
2021/08/27 02:55:06;;;;;;;;;29.50;29.00;;;;;25.33;67.88;100724.69;6274521;22;8795;-80
2021/08/27 02:58:07;;;;;;;;;32.75;30.75;;;;;25.36;68.19;100733.13;6277482;22;8795;-80
2021/08/27 03:00:59;;;;;;;;;28.25;28.25;;;;;25.34;67.73;100738.41;6285897;22;8778;-80
2021/08/27 03:04:02;;;;;;;;;25.40;25.40;;;;;25.30;68.04;100732.00;6276256;22;8775;-81
2021/08/27 03:06:53;;;;;;;;;33.50;31.75;;;;;25.28;67.85;100740.13;6286074;22;8764;-81
2021/08/27 03:10:15;;;;;;;;;25.40;25.40;;;;;25.17;67.90;100753.69;6258194;22;8779;-81
2021/08/27 03:13:18;;;;;;;;;34.50;32.50;;;;;25.16;68.01;100747.22;6279213;22;8779;-80
2021/08/27 03:16:17;;;;;;;;;34.25;32.00;;;;;25.12;67.76;100746.47;6277424;22;8795;-81
2021/08/27 03:18:56;;;;;;;;;28.50;28.25;;;;;25.05;68.40;100740.91;6287378;22;8783;-81
2021/08/27 03:21:36;;;;;;;;;28.25;28.00;;;;;24.70;69.19;100747.91;6277108;22;8810;-81
2021/08/27 03:24:35;;;;;;;;;33.50;31.25;;;;;24.48;70.40;100755.09;6281317;22;8811;-80
2021/08/27 03:27:35;;;;;;;;;32.50;31.00;;;;;24.30;71.48;100760.94;6276205;22;8860;-81
2021/08/27 03:30:33;;;;;;;;;34.75;32.50;;;;;23.83;73.61;100755.03;6274871;22;8791;-80
2021/08/27 03:33:29;;;;;;;;;32.75;31.00;;;;;23.58;74.47;100756.09;6275317;22;8784;-79
2021/08/27 03:36:11;;;;;;;;;29.00;27.75;;;;;23.97;73.63;100757.72;6254445;22;8830;-80
2021/08/27 03:39:07;;;;;;;;;28.50;28.50;;;;;24.08;73.29;100758.41;6255494;22;8787;-82
2021/08/27 03:42:04;;;;;;;;;30.25;30.00;;;;;23.84;73.99;100762.28;6254003;22;8901;-80
2021/08/27 03:45:00;;;;;;;;;34.25;31.75;;;;;24.17;72.58;100762.75;6274539;22;8916;-80
2021/08/27 03:47:59;;;;;;;;;36.50;33.50;;;;;24.12;72.51;100773.28;6274949;22;8813;-81
2021/08/27 03:50:55;;;;;;;;;35.75;33.00;;;;;23.87;73.71;100772.75;6275383;22;8882;-81
2021/08/27 03:53:52;;;;;;;;;34.75;32.50;;;;;24.17;73.23;100782.53;6275812;22;8798;-81
2021/08/27 03:56:50;;;;;;;;;33.75;32.25;;;;;24.38;72.37;100782.25;6255027;22;9513;-83
2021/08/27 03:59:46;;;;;;;;;32.00;30.75;;;;;23.64;75.26;100787.53;6257138;22;8802;-80
2021/08/27 04:02:41;;;;;;;;;33.75;32.00;;;;;23.35;76.36;100786.94;6273948;22;8806;-81
2021/08/27 04:05:37;;;;;;;;;34.00;31.75;;;;;23.73;75.61;100789.84;6275984;22;8818;-83
2021/08/27 04:08:05;;;;;;;;;31.75;30.75;;;;;23.99;74.30;100794.81;6285300;22;8801;-80
2021/08/27 04:10:34;;;;;;;;;30.50;30.00;;;;;23.74;75.46;100797.09;6249941;22;8794;-80
2021/08/27 04:13:30;;;;;;;;;31.75;30.00;;;;;23.57;76.30;100799.66;6274478;22;9526;-79
2021/08/27 04:16:25;;;;;;;;;29.50;29.50;;;;;23.45;76.88;100805.00;6274999;22;8813;-83
2021/08/27 04:19:21;;;;;;;;;29.50;29.50;;;;;23.34;77.98;100805.09;6275586;22;8810;-79
2021/08/27 04:21:49;;;;;;;;;35.25;32.75;;;;;23.62;76.77;100808.91;6285495;22;8844;-78
2021/08/27 04:24:44;;;;;;;;;36.75;33.75;;;;;23.61;76.83;100810.13;6278922;22;8868;-79
2021/08/27 04:27:41;;;;;;;;;29.50;29.25;;;;;23.72;76.35;100814.47;6277292;22;8806;-80
2021/08/27 04:30:17;;;;;;;;;32.00;31.00;;;;;23.75;75.86;100812.81;6285916;22;9471;-79
2021/08/27 04:33:13;;;;;;;;;32.25;31.25;;;;;23.62;76.22;100814.53;6259903;22;8838;-78
2021/08/27 04:36:09;;;;;;;;;32.75;31.75;;;;;23.67;76.88;100822.56;6276293;22;8787;-78
2021/08/27 04:38:51;;;;;;;;;33.50;30.75;;;;;23.80;76.59;100829.31;6287027;22;8811;-78
2021/08/27 04:41:46;;;;;;;;;35.25;32.75;;;;;23.90;75.66;100830.41;6275745;22;8803;-79
2021/08/27 04:44:42;;;;;;;;;31.75;30.75;;;;;23.91;76.61;100829.19;6255282;22;8799;-78
2021/08/27 04:47:38;;;;;;;;;31.75;30.75;;;;;24.02;75.90;100841.22;6258041;22;8791;-78
2021/08/27 04:50:34;;;;;;;;;36.25;33.25;;;;;23.90;75.95;100842.53;6276267;22;8817;-78
2021/08/27 04:53:29;;;;;;;;;31.25;30.50;;;;;23.84;75.57;100830.88;6275774;22;8888;-78
2021/08/27 04:56:25;;;;;;;;;36.25;33.50;;;;;23.75;75.45;100839.03;6276787;22;8823;-81
2021/08/27 04:59:20;;;;;;;;;38.75;34.50;;;;;23.76;75.93;100834.97;6275729;22;8841;-79
2021/08/27 05:02:16;;;;;;;;;34.50;32.50;;;;;23.87;75.67;100837.72;6275321;22;8763;-77
2021/08/27 05:05:12;;;;;;;;;35.00;32.50;;;;;23.73;75.78;100843.50;6256929;22;8772;-80
2021/08/27 05:08:17;;;;;;;;;38.75;35.00;;;;;24.03;75.12;100842.81;6275517;22;8783;-78
2021/08/27 05:10:52;;;;;;;;;37.50;34.50;;;;;24.01;74.77;100843.22;6289295;22;8779;-79
2021/08/27 05:13:47;;;;;;;;;38.50;34.50;;;;;24.08;75.30;100857.28;6273978;22;8909;-79
2021/08/27 05:16:43;;;;;;;;;43.00;35.50;;;;;24.08;74.88;100848.00;6275034;22;8810;-78
2021/08/27 05:19:11;;;;;;;;;34.75;32.50;;;;;24.17;74.51;100847.50;6285024;22;9544;-80
2021/08/27 05:22:06;;;;;;;;;19.25;19.25;;;;;24.24;73.73;100847.44;6279236;22;8783;-78
2021/08/27 05:25:05;;;;;;;;;33.50;32.00;;;;;24.33;72.90;100845.72;6257479;22;8775;-80
2021/08/27 05:28:01;;;;;;;;;33.75;32.00;;;;;24.47;72.45;100844.75;6252433;22;8791;-79
2021/08/27 05:30:56;;;;;;;;;36.25;33.25;;;;;24.00;73.91;100850.09;6273928;22;8793;-80
2021/08/27 05:33:52;;;;;;;;;32.75;31.75;;;;;24.22;72.68;100847.81;6271026;22;8821;-79
2021/08/27 05:36:47;;;;;;;;;31.25;30.25;;;;;24.19;72.98;100851.50;6272179;22;8775;-82
2021/08/27 05:39:16;;;;;;;;;33.75;31.75;;;;;24.52;71.79;100849.94;6287725;22;8787;-79
2021/08/27 05:42:12;;;;;;;;;31.50;29.75;;;;;24.65;70.51;100850.97;6270521;22;8909;-79
2021/08/27 05:45:09;;;;;;;;;28.25;28.25;;;;;24.78;69.91;100854.06;6272841;22;8783;-81
2021/08/27 05:48:04;;;;;;;;;30.00;30.00;;;;;24.89;68.83;100851.88;6256697;22;8803;-81
2021/08/27 05:51:00;;;;;;;;;28.75;28.50;;;;;25.11;68.26;100849.56;6261914;22;8822;-78
2021/08/27 05:53:32;;;;;;;;;29.50;29.25;;;;;25.17;67.52;100847.06;6277980;22;8783;-79
2021/08/27 05:56:01;;;;;;;;;28.75;28.25;;;;;25.29;66.91;100851.31;6286781;22;8811;-79
2021/08/27 05:58:57;;;;;;;;;27.75;27.75;;;;;25.33;65.79;100857.72;6275790;22;8787;-80
2021/08/27 06:01:53;;;;;;;;;27.20;27.20;;;;;25.37;66.47;100850.78;6275102;22;8771;-81
2021/08/27 06:04:32;;;;;;;;;22.20;22.20;;;;;25.38;64.33;100848.75;6250912;22;8793;-81
2021/08/27 06:07:28;;;;;;;;;26.50;26.50;;;;;25.56;65.13;100849.25;6256761;22;8788;-81
2021/08/27 06:10:24;;;;;;;;;37.50;34.25;;;;;25.77;64.59;100848.94;6275657;22;8791;-79
2021/08/27 06:12:52;;;;;;;;;46.25;40.00;;;;;25.76;64.19;100843.69;6286155;22;8802;-80
2021/08/27 06:15:48;;;;;;;;;29.00;28.50;;;;;25.71;63.94;100850.66;6275315;22;8810;-79
2021/08/27 06:18:43;;;;;;;;;39.25;35.00;;;;;25.93;63.95;100856.75;6274941;22;8904;-80
2021/08/27 06:21:39;;;;;;;;;59.75;48.75;;;;;26.26;63.38;100857.72;6275226;22;8795;-82
2021/08/27 06:24:35;;;;;;;;;25.00;25.00;;;;;26.37;62.55;100865.22;6275031;22;8795;-79
2021/08/27 06:27:30;;;;;;;;;27.40;27.40;;;;;26.28;62.30;100865.78;6275806;22;8933;-79
2021/08/27 06:30:26;;;;;;;;;34.50;32.25;;;;;26.26;62.68;100880.41;6275843;22;8811;-80
2021/08/27 06:32:54;;;;;;;;;19.40;19.40;;;;;26.38;61.28;100869.66;6275946;22;8791;-81
2021/08/27 06:35:49;;;;;;;;;16.40;16.40;;;;;26.43;60.15;100875.66;6276074;22;8787;-82
2021/08/27 06:38:45;;;;;;;;;17.20;17.20;;;;;26.17;60.80;100874.50;6278021;22;8793;-83
2021/08/27 06:41:40;;;;;;;;;19.20;19.20;;;;;26.48;61.26;100885.69;6275704;22;8899;-79
2021/08/27 06:44:10;;;;;;;;;17.40;17.40;;;;;26.46;60.82;100888.97;6281989;22;8775;-83
2021/08/27 06:47:07;;;;;;;;;18.40;18.40;;;;;26.60;59.39;100890.69;6257984;22;8802;-81
2021/08/27 06:50:08;;;;;;;;;18.00;18.00;;;;;26.91;60.48;100882.75;6281941;22;8802;-82
2021/08/27 06:53:06;;;;;;;;;19.00;19.00;;;;;26.99;59.10;100887.06;6276069;22;8901;-79
2021/08/27 06:56:03;;;;;;;;;22.00;22.00;;;;;27.02;59.51;100889.00;6261200;22;8775;-83
2021/08/27 06:58:59;;;;;;;;;15.60;15.60;;;;;27.12;60.26;100884.34;6275795;22;8825;-82
2021/08/27 07:01:55;;;;;;;;;16.40;16.40;;;;;27.41;58.58;100888.13;6277237;22;8852;-81
2021/08/27 07:04:50;;;;;;;;;18.00;18.00;;;;;27.39;58.15;100887.78;6278230;22;8907;-81
2021/08/27 07:07:46;;;;;;;;;16.20;16.20;;;;;27.36;58.31;100891.47;6277775;22;8790;-80
2021/08/27 07:10:16;;;;;;;;;17.00;17.00;;;;;27.04;57.76;100899.94;6286665;22;8790;-81
2021/08/27 07:13:13;;;;;;;;;17.80;17.80;;;;;27.35;58.81;100892.72;6275741;22;8799;-84
2021/08/27 07:16:25;;;;;;;;;16.40;16.40;;;;;27.29;58.92;100888.00;6260097;22;8727;-78
2021/08/27 07:19:20;;;;;;;;;15.40;15.40;;;;;26.85;60.23;100890.19;6277758;22;8979;-85
2021/08/27 07:22:16;;;;;;;;;17.60;17.60;;;;;27.01;60.33;100884.56;6256822;22;8902;-79
2021/08/27 07:25:14;;;;;;;;;19.40;19.40;;;;;26.82;60.97;100896.72;6257793;22;8829;-82
2021/08/27 07:28:10;;;;;;;;;18.40;18.40;;;;;27.06;60.26;100897.44;6275378;22;8803;-80
2021/08/27 07:31:06;;;;;;;;;16.60;16.60;;;;;27.41;59.37;100901.53;6275506;22;8841;-84
2021/08/27 07:34:01;;;;;;;;;16.40;16.40;;;;;27.34;59.45;100905.31;6278746;22;8795;-85
2021/08/27 07:36:59;;;;;;;;;17.40;17.40;;;;;27.17;58.86;100900.06;6255692;22;8799;-79
2021/08/27 07:39:27;;;;;;;;;17.20;17.20;;;;;27.25;58.25;100907.97;6288016;22;8799;-83
2021/08/27 07:42:09;;;;;;;;;19.00;19.00;;;;;27.65;57.62;100908.63;6279344;22;8892;-79
2021/08/27 07:45:06;;;;;;;;;19.80;19.80;;;;;27.80;56.84;100903.44;6293686;22;8814;-81
2021/08/27 07:48:03;;;;;;;;;17.60;17.60;;;;;27.63;56.96;100905.44;6277761;22;8797;-82
2021/08/27 07:50:59;;;;;;;;;18.20;18.20;;;;;28.02;58.32;100908.56;6276949;22;8795;-80
2021/08/27 07:53:55;;;;;;;;;20.00;19.80;;;;;28.33;57.09;100917.50;6277252;22;8787;-81
2021/08/27 07:56:52;;;;;;;;;22.00;22.00;;;;;28.52;56.03;100908.84;6259550;22;8823;-82
2021/08/27 07:59:47;;;;;;;;;21.20;20.40;;;;;28.35;56.15;100912.97;6276638;22;8799;-83
2021/08/27 08:02:43;;;;;;;;;24.00;24.00;;;;;28.27;56.28;100903.78;6277318;22;8771;-80
2021/08/27 08:05:38;;;;;;;;;21.40;21.40;;;;;28.50;56.30;100913.38;6279765;22;8794;-81
2021/08/27 08:08:34;;;;;;;;;22.40;22.40;;;;;28.75;56.49;100924.03;6277432;22;8874;-80
2021/08/27 08:11:29;;;;;;;;;26.40;26.40;;;;;28.87;55.85;100920.44;6275391;22;8787;-80
2021/08/27 08:14:25;;;;;;;;;23.80;22.40;;;;;28.77;55.66;100930.09;6277694;22;8956;-80
2021/08/27 08:16:55;;;;;;;;;20.80;20.40;;;;;29.05;55.06;100931.31;6292533;22;8787;-80
2021/08/27 08:19:22;;;;;;;;;22.60;22.60;;;;;29.24;54.42;100924.63;6289869;22;8768;-78
2021/08/27 08:21:54;;;;;;;;;24.40;23.20;;;;;29.05;54.68;100929.25;6292202;22;8872;-85
2021/08/27 08:24:35;;;;;;;;;20.80;20.80;;;;;28.98;55.20;100925.81;6284582;22;8845;-82
2021/08/27 08:27:34;;;;;;;;;22.60;22.60;;;;;28.39;55.75;100924.25;6276806;22;8811;-84
2021/08/27 08:30:29;;;;;;;;;22.60;22.40;;;;;28.81;55.19;100925.06;6275825;22;9447;-82
2021/08/27 08:33:25;;;;;;;;;20.80;20.80;;;;;28.82;55.32;100923.81;6274086;22;8799;-77
2021/08/27 08:36:22;;;;;;;;;23.40;23.40;;;;;28.76;54.89;100922.81;6273107;22;8892;-78
2021/08/27 08:39:17;;;;;;;;;23.00;23.00;;;;;29.05;54.13;100917.06;6254422;22;8779;-77
2021/08/27 08:42:15;;;;;;;;;25.40;25.40;;;;;28.91;53.35;100915.47;6255679;22;8872;-77
2021/08/27 08:45:11;;;;;;;;;27.60;26.00;;;;;29.05;54.13;100923.56;6274514;22;9497;-78
2021/08/27 08:47:43;;;;;;;;;23.00;23.00;;;;;29.29;53.08;100915.53;6287911;22;8829;-77
2021/08/27 08:50:14;;;;;;;;;29.20;28.00;;;;;29.21;53.72;100924.72;6284695;22;8873;-77
2021/08/27 08:52:46;;;;;;;;;25.20;25.20;;;;;28.84;53.65;100929.88;6265708;22;8787;-84
2021/08/27 08:55:42;;;;;;;;;26.00;26.00;;;;;28.48;55.02;100907.34;6265589;22;8795;-80
2021/08/27 08:58:09;;;;;;;;;26.60;26.60;;;;;28.90;53.06;100922.38;6287954;22;8857;-84
2021/08/27 09:00:39;;;;;;;;;26.00;26.00;;;;;28.89;53.72;100915.06;6288272;22;8763;-82
2021/08/27 09:03:35;;;;;;;;;27.60;27.60;;;;;29.17;53.42;100915.50;6277043;22;8787;-79
2021/08/27 09:06:30;;;;;;;;;24.80;24.80;;;;;29.57;52.43;100915.88;6277800;22;8888;-84
2021/08/27 09:09:30;;;;;;;;;28.00;28.00;;;;;29.41;52.27;100911.06;6279736;22;8774;-83
2021/08/27 09:12:00;;;;;;;;;24.00;24.00;;;;;29.53;51.87;100918.06;6261945;22;8870;-81
2021/08/27 09:15:05;;;;;;;;;22.60;22.60;;;;;29.53;51.56;100918.84;6278001;22;8795;-83
2021/08/27 09:18:08;;;;;;;;;25.40;25.40;;;;;29.72;51.50;100919.06;6284626;22;8822;-82
2021/08/27 09:21:25;;;;;;;;;24.40;24.40;;;;;29.25;52.68;100917.66;6284201;22;8802;-83
2021/08/27 09:24:25;;;;;;;;;31.00;30.00;;;;;29.95;51.52;100924.38;6258720;22;8871;-81
2021/08/27 09:27:20;;;;;;;;;24.60;24.60;;;;;29.92;51.69;100930.22;6278848;22;8849;-83
2021/08/27 09:30:17;;;;;;;;;25.60;25.60;;;;;29.89;51.67;100931.91;6290308;22;8783;-82
2021/08/27 09:32:45;;;;;;;;;18.20;18.20;;;;;30.06;51.46;100933.38;6277470;22;8783;-82
2021/08/27 09:36:00;;;;;;;;;27.40;27.40;;;;;30.08;52.03;100928.03;6279367;22;8815;-82
2021/08/27 09:39:07;;;;;;;;;27.00;27.00;;;;;30.29;49.83;100925.66;6277982;22;8802;-83
2021/08/27 09:42:03;;;;;;;;;31.40;30.20;;;;;30.05;51.11;100925.25;6277889;22;8787;-83
2021/08/27 09:44:59;;;;;;;;;26.20;25.40;;;;;30.10;50.15;100921.84;6280830;22;8783;-80
2021/08/27 09:47:26;;;;;;;;;26.00;25.00;;;;;30.20;50.51;100925.59;6289715;22;8767;-82
2021/08/27 09:49:55;;;;;;;;;25.00;23.20;;;;;29.90;50.10;100930.63;6286828;22;9453;-83
2021/08/27 09:52:24;;;;;;;;;20.20;20.20;;;;;29.42;49.72;100934.66;6285846;22;8779;-85
2021/08/27 09:55:20;;;;;;;;;23.80;23.80;;;;;29.34;50.32;100934.88;6282179;22;8778;-79
2021/08/27 09:57:50;;;;;;;;;22.80;22.80;;;;;29.58;49.62;100934.56;6231680;22;8833;-80
2021/08/27 10:01:06;;;;;;;;;22.80;22.80;;;;;29.66;48.85;100926.56;6276160;22;8856;-83
2021/08/27 10:04:05;;;;;;;;;23.20;23.20;;;;;29.31;49.20;100932.94;6258614;22;8813;-81
2021/08/27 10:07:01;;;;;;;;;27.00;27.00;;;;;29.55;50.23;100941.97;6255320;22;8803;-80
2021/08/27 10:09:59;;;;;;;;;23.20;23.20;;;;;29.54;49.14;100940.38;6274888;22;8834;-81
2021/08/27 10:12:59;;;;;;;;;25.80;25.60;;;;;29.33;49.71;100946.72;6254777;22;8803;-83
2021/08/27 10:15:54;;;;;;;;;26.20;26.20;;;;;29.29;49.31;100937.47;6274778;22;9549;-83
2021/08/27 10:18:50;;;;;;;;;29.20;28.80;;;;;29.56;49.36;100946.41;6275752;22;8783;-81
2021/08/27 10:21:50;;;;;;;;;26.40;26.40;;;;;29.54;49.01;100946.09;6279155;22;8787;-76
2021/08/27 10:24:47;;;;;;;;;27.00;27.00;;;;;29.67;48.74;100945.28;6276875;22;8775;-79
2021/08/27 10:27:16;;;;;;;;;27.60;27.60;;;;;29.60;48.79;100949.97;6278420;22;8798;-80
2021/08/27 10:30:12;;;;;;;;;22.60;22.60;;;;;29.31;48.87;100947.19;6259813;22;8917;-77
2021/08/27 10:33:07;;;;;;;;;15.20;15.20;;;;;29.19;49.45;100950.00;6275823;22;8780;-78
2021/08/27 10:35:39;;;;;;;;;30.40;29.00;;;;;29.19;50.10;100947.16;6236377;22;8794;-80
2021/08/27 10:38:46;;;;;;;;;28.00;27.40;;;;;29.24;49.55;100950.25;6276834;22;8794;-76
2021/08/27 10:41:43;;;;;;;;;23.80;23.80;;;;;29.48;49.26;100950.72;6277003;22;8775;-80
2021/08/27 10:44:46;;;;;;;;;23.20;23.20;;;;;29.22;48.28;100960.50;6278431;22;8779;-77
2021/08/27 10:47:15;;;;;;;;;22.60;22.60;;;;;29.11;48.81;100946.56;6286473;22;8783;-81
2021/08/27 10:50:11;;;;;;;;;20.40;20.40;;;;;29.05;49.13;100949.19;6277614;22;8818;-83
2021/08/27 10:53:22;;;;;;;;;25.40;25.40;;;;;29.16;49.57;100954.56;6259148;22;8799;-83
2021/08/27 10:56:38;;;;;;;;;30.00;29.40;;;;;29.05;50.37;100951.22;6280181;22;8794;-81
2021/08/27 10:59:08;;;;;;;;;22.00;22.00;;;;;28.99;49.38;100951.00;6293341;22;8801;-79
2021/08/27 11:02:05;;;;;;;;;19.00;19.00;;;;;28.67;48.89;100949.03;6279653;22;9512;-84
2021/08/27 11:05:01;;;;;;;;;22.80;22.80;;;;;28.77;50.92;100950.81;6277378;22;8827;-85
2021/08/27 11:08:01;;;;;;;;;21.60;21.60;;;;;28.87;50.50;100948.09;6257249;22;8830;-82
2021/08/27 11:11:15;;;;;;;;;24.40;24.40;;;;;28.95;50.55;100958.84;6235803;22;8874;-82
2021/08/27 11:14:21;;;;;;;;;21.60;21.60;;;;;28.90;50.48;100956.53;6258056;22;8826;-87
2021/08/27 11:17:00;;;;;;;;;21.60;21.60;;;;;29.37;48.84;100961.66;6288547;22;8798;-82
2021/08/27 11:19:48;;;;;;;;;19.40;19.40;;;;;29.43;48.32;100965.53;6277261;22;8811;-83
2021/08/27 11:22:54;;;;;;;;;21.20;21.20;;;;;29.70;48.46;100952.91;6276770;22;8779;-86
2021/08/27 11:26:03;;;;;;;;;20.00;20.00;;;;;29.73;47.30;100957.69;6275711;22;8790;-85
2021/08/27 11:28:46;;;;;;;;;16.60;16.60;;;;;29.75;47.18;100944.59;6259303;22;8860;-83
2021/08/27 11:31:42;;;;;;;;;20.00;20.00;;;;;29.34;47.03;100951.16;6265699;22;8805;-79
2021/08/27 11:34:55;;;;;;;;;20.80;19.80;;;;;29.41;48.60;100947.31;6281209;22;8787;-84
2021/08/27 11:37:57;;;;;;;;;19.20;18.80;;;;;29.52;48.23;100953.47;6297715;22;8830;-87
2021/08/27 11:40:52;;;;;;;;;17.20;17.20;;;;;29.75;47.33;100958.84;6275626;22;9531;-84
2021/08/27 11:44:00;;;;;;;;;19.60;19.60;;;;;29.86;47.30;100958.50;6294232;22;8803;-81
2021/08/27 11:46:32;;;;;;;;;19.40;19.40;;;;;29.77;46.61;100955.53;6263550;22;8815;-84
2021/08/27 11:49:10;;;;;;;;;16.60;16.60;;;;;29.44;47.47;100961.41;6290833;22;8821;-83
2021/08/27 11:51:58;;;;;;;;;19.20;19.20;;;;;29.99;47.08;100952.78;6286764;22;8787;-81
2021/08/27 11:55:02;;;;;;;;;17.60;17.60;;;;;30.34;46.05;100953.63;6276479;22;8791;-85
2021/08/27 11:58:02;;;;;;;;;20.40;20.40;;;;;30.02;46.78;100949.78;6279031;22;8868;-84
2021/08/27 12:00:43;;;;;;;;;19.00;19.00;;;;;30.11;46.67;100952.75;6290386;22;8868;-86
2021/08/27 12:03:39;;;;;;;;;18.20;18.20;;;;;30.14;46.42;100946.16;6260312;22;8787;-84
2021/08/27 12:06:37;;;;;;;;;19.00;19.00;;;;;30.16;46.34;100945.69;6278559;22;8798;-84
2021/08/27 12:09:32;;;;;;;;;18.60;18.60;;;;;29.80;46.82;100946.84;6277423;22;9507;-83
2021/08/27 12:12:33;;;;;;;;;20.20;20.20;;;;;29.96;47.19;100948.78;6254560;22;8803;-84
2021/08/27 12:15:01;;;;;;;;;17.80;17.60;;;;;29.89;47.20;100946.16;6259454;22;9505;-83
2021/08/27 12:18:03;;;;;;;;;22.20;22.20;;;;;29.82;46.77;100937.84;6278723;22;8795;-85
2021/08/27 12:20:49;;;;;;;;;18.40;18.40;;;;;29.26;47.16;100944.09;6229721;22;8952;-77
2021/08/27 12:24:04;;;;;;;;;15.40;15.40;;;;;29.28;47.98;100945.22;6279513;22;8814;-86
2021/08/27 12:26:59;;;;;;;;;24.00;24.00;;;;;29.77;47.80;100955.53;6280025;22;8815;-84
2021/08/27 12:30:13;;;;;;;;;18.40;18.40;;;;;30.16;45.98;100957.91;6258110;22;8928;-78
2021/08/27 12:32:57;;;;;;;;;11.60;11.60;;;;;30.15;44.41;100956.31;6277912;22;9509;-80
2021/08/27 12:35:55;;;;;;;;;12.20;12.20;;;;;30.13;43.86;100950.25;6258712;22;9504;-84
2021/08/27 12:38:54;;;;;;;;;0.40;0.00;;;;;30.22;44.97;100946.69;6260003;22;8771;-85
2021/08/27 12:41:40;;;;;;;;;15.40;15.40;;;;;30.42;44.56;100941.47;6270296;22;9449;-84
2021/08/27 12:44:32;;;;;;;;;13.20;13.20;;;;;29.99;44.11;100944.22;6265289;22;8771;-80
2021/08/27 12:47:01;;;;;;;;;15.40;15.40;;;;;30.22;43.69;100943.84;6278529;22;9702;-84
2021/08/27 12:50:04;;;;;;;;;12.80;12.80;;;;;30.17;43.78;100950.13;6279602;22;8967;-85
2021/08/27 12:53:05;;;;;;;;;14.00;14.00;;;;;30.55;42.84;100932.09;6278534;22;8872;-86
2021/08/27 12:56:15;;;;;;;;;15.40;15.40;;;;;30.55;42.76;100935.72;6276959;22;8896;-84
2021/08/27 12:59:19;;;;;;;;;18.80;18.80;;;;;30.51;43.42;100934.25;6280047;22;8870;-86
2021/08/27 13:02:17;;;;;;;;;18.00;18.00;;;;;30.69;43.54;100935.25;6276706;22;8880;-84
2021/08/27 13:05:13;;;;;;;;;14.00;14.00;;;;;31.23;42.31;100933.22;6257200;22;8787;-84
2021/08/27 13:08:11;;;;;;;;;13.60;13.60;;;;;30.81;43.38;100935.63;6279886;22;8795;-86
2021/08/27 13:11:09;;;;;;;;;13.40;13.40;;;;;30.38;42.97;100926.56;6278229;22;8894;-87
2021/08/27 13:14:36;;;;;;;;;2.60;2.60;;;;;29.92;42.56;100938.75;6257427;22;8791;-83